Main page
METAR-TAF:

METAR-TAF

Airports :

Les Eplatures Airport

La Chaux-de-Fonds, Switzerland

latitude: 47-05-03N, longitude: 006-47-37E, elevation: 1027 m

Current weather observation

The report was made 54 minutes ago, at 19:20 UTC
Wind 3 kt from the West/Southwest, varying between South/Southwest and West
Temperature 3°C
Humidity 87%
Pressure 1005 hPa
Visibility 10 km or more

METAR: LSGC 011920Z AUTO 25003KT 210V280 9999 NCD 03/01 Q1005

Time: 21:14 (20:14 UTC)

Forecast

The report was made 5 hours and 49 minutes ago, at 14:25 UTC
Forecast valid from 01 at 15 UTC to 01 at 24 UTC
Wind 5 kt from the Southwest
Visibility 10 km or more
no clouds below 1500 m and no cumulonimbus

TAF: LSGC 011425Z 0115/0124 23005KT CAVOK

Weather observations and forecasts of more than 4000 airports (METAR and TAF reports).

The available stations are represented by yellow and red dots on the map.

Hover mouse over dot to see the name of the station.

Then click to see weather observations and forecasts.

To change the map : click on the green buttons with a black cross to zoom in, on the green button with a dash to zoom out, or on the green arrows for adjacent maps.


METAR-TAF: